Delphos, OH (45833)

11:38 PM EST on March 06, 2015 (GMT -0500)
KOHDELPH2 | Change Station
CLOSE
Current Station
Personal Weather Station
Location: Delphos, OH
Elevation: 781 ft
Nearby Weather Stations

Elev 781 ft 40.84 °N, 84.35 °W | Updated 14 minutes ago

Clear
Clear
22.6 °F
Feels Like 12 °F
N
10.0
Wind Variable Wind from SW

Today
High -- | Low -- °F
--% Chance of Precip.
Yesterday
High -- | Low -- °F
Precip. -- in
7:03 AM 6:33 PM
Full, 98% visible
Pressure 30.30 in
Visibility 10.0 miles
Clouds Clear
Windchill 12 °F
Dew Point 15 °F
Humidity 73%
Rainfall in
Snow Depth Not available.
UV 0 out of 12
Pollen .50 out of 12
Air Quality Not available.
Flu Activity Not available.
METAR KAOH 070353Z AUTO 20014KT 10SM CLR M04/M12 A3025 RMK AO2 SLP259 T10441117

More Conditions Fewer Conditions

Pressure 30.30 in
Visibility 10.0 miles
Clouds Clear
Windchill 12 °F
Dew Point 15 °F
Humidity 73%
Rainfall in
Snow Depth Not available.
UV 0 out of 12
Pollen .50 out of 12
Air Quality Not available.
Flu Activity Not available.
METAR KAOH 070353Z AUTO 20014KT 10SM CLR M04/M12 A3025 RMK AO2 SLP259 T10441117

More Conditions Fewer Conditions

10-Day Weather Forecast

Almanac

Astronomy

Mar. 06, 2015 Rise Set
Actual Time
Civil Twilight
Nautical Twilight
Astronomical Twilight
Moon
Length of Visible Light
Length of Day
Tomorrow will be .
, % of the Moon is Illuminated

Today's Extremes

State Highs State Lows

Community

WunderPhotos

Upload Photos

1,803,539 photos uploaded!

WunderBlogs® & News

Nearby

Air Quality

  Air Quality AQ Index Pollutant
Not available.

Snow Depth

Station Depth Elevation

Earthquake Activity

City Distance Mag. Time & Date
Minimum magnitude displayed is 2.5.

Coastal Water Temperatures

Place Temperature

Nearby Weather Stations